sensor_id;sensor_type;location;lat;lon;timestamp;pressure;altitude;pressure_sealevel;temperature;humidity
43125;BME280;49182;50.788;7.318;2023-11-22T00:04:16;101779.34;;;4.68;100.00
43125;BME280;49182;50.788;7.318;2023-11-22T00:09:19;101783.47;;;4.74;100.00
43125;BME280;49182;50.788;7.318;2023-11-22T00:14:21;101788.59;;;4.75;100.00
43125;BME280;49182;50.788;7.318;2023-11-22T00:19:23;101793.03;;;4.75;100.00
43125;BME280;49182;50.788;7.318;2023-11-22T00:24:26;101784.16;;;4.77;100.00
43125;BME280;49182;50.788;7.318;2023-11-22T00:29:27;101790.81;;;4.84;100.00
43125;BME280;49182;50.788;7.318;2023-11-22T00:34:29;101792.53;;;4.85;100.00
43125;BME280;49182;50.788;7.318;2023-11-22T00:39:32;101781.22;;;4.85;100.00
43125;BME280;49182;50.788;7.318;2023-11-22T00:44:35;101796.13;;;4.83;100.00
43125;BME280;49182;50.788;7.318;2023-11-22T00:49:38;101756.50;;;4.53;100.00
43125;BME280;49182;50.788;7.318;2023-11-22T00:54:41;101802.00;;;4.88;100.00
43125;BME280;49182;50.788;7.318;2023-11-22T00:59:43;101809.72;;;4.91;100.00
43125;BME280;49182;50.788;7.318;2023-11-22T01:04:44;101727.13;;;4.46;100.00
43125;BME280;49182;50.788;7.318;2023-11-22T01:09:48;101817.13;;;5.00;100.00
43125;BME280;49182;50.788;7.318;2023-11-22T01:14:50;101823.16;;;5.02;100.00
43125;BME280;49182;50.788;7.318;2023-11-22T01:19:51;101823.31;;;4.99;100.00
43125;BME280;49182;50.788;7.318;2023-11-22T01:24:54;101826.69;;;5.01;100.00
43125;BME280;49182;50.788;7.318;2023-11-22T01:29:56;101835.19;;;5.06;100.00
43125;BME280;49182;50.788;7.318;2023-11-22T01:34:58;101837.09;;;5.03;100.00
43125;BME280;49182;50.788;7.318;2023-11-22T01:40:01;101842.56;;;4.98;100.00
43125;BME280;49182;50.788;7.318;2023-11-22T01:45:03;101842.63;;;4.97;100.00
43125;BME280;49182;50.788;7.318;2023-11-22T01:50:06;101837.31;;;4.98;100.00
43125;BME280;49182;50.788;7.318;2023-11-22T01:55:10;101838.94;;;5.01;100.00
43125;BME280;49182;50.788;7.318;2023-11-22T02:00:12;101821.09;;;4.90;100.00
43125;BME280;49182;50.788;7.318;2023-11-22T02:05:15;101861.50;;;5.03;100.00
43125;BME280;49182;50.788;7.318;2023-11-22T02:10:18;101868.44;;;5.04;100.00
43125;BME280;49182;50.788;7.318;2023-11-22T02:15:19;101853.78;;;5.00;100.00
43125;BME280;49182;50.788;7.318;2023-11-22T02:20:21;101860.03;;;4.98;100.00
43125;BME280;49182;50.788;7.318;2023-11-22T02:25:24;101867.13;;;4.94;100.00
43125;BME280;49182;50.788;7.318;2023-11-22T02:30:25;101885.53;;;4.93;100.00
43125;BME280;49182;50.788;7.318;2023-11-22T02:35:27;101891.47;;;4.96;100.00
43125;BME280;49182;50.788;7.318;2023-11-22T02:40:30;101896.50;;;5.01;100.00
43125;BME280;49182;50.788;7.318;2023-11-22T02:45:32;101881.94;;;4.95;100.00
43125;BME280;49182;50.788;7.318;2023-11-22T02:50:34;101895.66;;;5.00;100.00
43125;BME280;49182;50.788;7.318;2023-11-22T02:55:37;101888.88;;;4.96;100.00
43125;BME280;49182;50.788;7.318;2023-11-22T03:00:40;101892.22;;;5.00;100.00
43125;BME280;49182;50.788;7.318;2023-11-22T03:05:42;101821.47;;;4.62;100.00
43125;BME280;49182;50.788;7.318;2023-11-22T03:10:45;101902.41;;;5.06;100.00
43125;BME280;49182;50.788;7.318;2023-11-22T03:15:47;101891.84;;;5.07;100.00
43125;BME280;49182;50.788;7.318;2023-11-22T03:20:49;101894.94;;;5.17;100.00
43125;BME280;49182;50.788;7.318;2023-11-22T03:25:53;101898.53;;;5.14;100.00
43125;BME280;49182;50.788;7.318;2023-11-22T03:30:55;101873.91;;;5.00;100.00
43125;BME280;49182;50.788;7.318;2023-11-22T03:35:56;101918.75;;;5.11;100.00
43125;BME280;49182;50.788;7.318;2023-11-22T03:41:00;101926.47;;;5.14;100.00
43125;BME280;49182;50.788;7.318;2023-11-22T03:46:01;101930.00;;;5.13;100.00
43125;BME280;49182;50.788;7.318;2023-11-22T03:51:03;101936.94;;;5.14;100.00
43125;BME280;49182;50.788;7.318;2023-11-22T03:56:06;101949.25;;;5.12;100.00
43125;BME280;49182;50.788;7.318;2023-11-22T04:01:08;101950.19;;;5.11;100.00
43125;BME280;49182;50.788;7.318;2023-11-22T04:06:10;101955.31;;;5.12;100.00
43125;BME280;49182;50.788;7.318;2023-11-22T04:11:13;101817.88;;;4.24;100.00
43125;BME280;49182;50.788;7.318;2023-11-22T04:16:15;101964.97;;;4.92;100.00
43125;BME280;49182;50.788;7.318;2023-11-22T04:21:17;101975.28;;;4.74;100.00
43125;BME280;49182;50.788;7.318;2023-11-22T04:26:20;101996.97;;;4.56;100.00
43125;BME280;49182;50.788;7.318;2023-11-22T04:31:21;102011.44;;;4.43;100.00
43125;BME280;49182;50.788;7.318;2023-11-22T04:36:23;102016.59;;;4.23;100.00
43125;BME280;49182;50.788;7.318;2023-11-22T04:41:27;102026.78;;;4.07;100.00
43125;BME280;49182;50.788;7.318;2023-11-22T04:46:29;102035.31;;;3.89;100.00
43125;BME280;49182;50.788;7.318;2023-11-22T04:51:30;102038.31;;;3.78;100.00
43125;BME280;49182;50.788;7.318;2023-11-22T04:56:34;102033.47;;;3.67;100.00
43125;BME280;49182;50.788;7.318;2023-11-22T05:01:36;102034.78;;;3.56;100.00
43125;BME280;49182;50.788;7.318;2023-11-22T05:06:37;102033.25;;;3.50;100.00
43125;BME280;49182;50.788;7.318;2023-11-22T05:11:40;102029.13;;;3.43;100.00
43125;BME280;49182;50.788;7.318;2023-11-22T05:16:42;102031.97;;;3.37;100.00
43125;BME280;49182;50.788;7.318;2023-11-22T05:21:44;102027.13;;;3.27;100.00
43125;BME280;49182;50.788;7.318;2023-11-22T05:26:47;102040.38;;;3.20;100.00
43125;BME280;49182;50.788;7.318;2023-11-22T05:31:49;102042.47;;;3.09;100.00
43125;BME280;49182;50.788;7.318;2023-11-22T05:36:51;102045.56;;;2.96;100.00
43125;BME280;49182;50.788;7.318;2023-11-22T05:41:54;102076.22;;;2.89;100.00
43125;BME280;49182;50.788;7.318;2023-11-22T05:46:56;102075.88;;;2.72;100.00
43125;BME280;49182;50.788;7.318;2023-11-22T05:51:58;102085.88;;;2.59;100.00
43125;BME280;49182;50.788;7.318;2023-11-22T05:57:01;102094.16;;;2.42;100.00
43125;BME280;49182;50.788;7.318;2023-11-22T06:02:03;102110.22;;;2.29;100.00
43125;BME280;49182;50.788;7.318;2023-11-22T06:07:05;102125.41;;;2.15;100.00
43125;BME280;49182;50.788;7.318;2023-11-22T06:12:08;102129.25;;;2.01;100.00
43125;BME280;49182;50.788;7.318;2023-11-22T06:17:10;102122.66;;;1.88;100.00
43125;BME280;49182;50.788;7.318;2023-11-22T06:22:12;102115.19;;;1.76;100.00
43125;BME280;49182;50.788;7.318;2023-11-22T06:27:15;102109.47;;;1.63;100.00
43125;BME280;49182;50.788;7.318;2023-11-22T06:32:17;102104.59;;;1.50;100.00
43125;BME280;49182;50.788;7.318;2023-11-22T06:37:19;102095.69;;;1.26;100.00
43125;BME280;49182;50.788;7.318;2023-11-22T06:42:22;102124.19;;;1.31;100.00
43125;BME280;49182;50.788;7.318;2023-11-22T06:47:23;102136.44;;;1.26;100.00
43125;BME280;49182;50.788;7.318;2023-11-22T06:52:26;102148.78;;;1.17;100.00
43125;BME280;49182;50.788;7.318;2023-11-22T06:57:29;102147.31;;;1.06;100.00
43125;BME280;49182;50.788;7.318;2023-11-22T07:02:31;102141.38;;;1.01;100.00
43125;BME280;49182;50.788;7.318;2023-11-22T07:07:33;102088.81;;;0.51;100.00
43125;BME280;49182;50.788;7.318;2023-11-22T07:12:36;102134.03;;;0.81;100.00
43125;BME280;49182;50.788;7.318;2023-11-22T07:17:38;102126.47;;;0.72;100.00
43125;BME280;49182;50.788;7.318;2023-11-22T07:22:40;102079.78;;;0.30;100.00
43125;BME280;49182;50.788;7.318;2023-11-22T07:27:43;102144.97;;;0.58;100.00
43125;BME280;49182;50.788;7.318;2023-11-22T07:32:45;102149.31;;;0.58;100.00
43125;BME280;49182;50.788;7.318;2023-11-22T07:37:47;102098.97;;;0.23;100.00
43125;BME280;49182;50.788;7.318;2023-11-22T07:42:50;102133.31;;;0.36;100.00
43125;BME280;49182;50.788;7.318;2023-11-22T07:47:52;102179.78;;;0.50;100.00
43125;BME280;49182;50.788;7.318;2023-11-22T07:52:54;102219.66;;;0.49;100.00
43125;BME280;49182;50.788;7.318;2023-11-22T07:57:57;102229.09;;;0.53;100.00
43125;BME280;49182;50.788;7.318;2023-11-22T08:02:59;102241.25;;;0.51;100.00
43125;BME280;49182;50.788;7.318;2023-11-22T08:08:02;102240.34;;;0.53;100.00
43125;BME280;49182;50.788;7.318;2023-11-22T08:13:05;102225.72;;;0.49;100.00
43125;BME280;49182;50.788;7.318;2023-11-22T08:18:07;102215.38;;;0.45;100.00
43125;BME280;49182;50.788;7.318;2023-11-22T08:23:09;102179.97;;;0.42;100.00
43125;BME280;49182;50.788;7.318;2023-11-22T08:28:12;102182.84;;;0.68;100.00
43125;BME280;49182;50.788;7.318;2023-11-22T08:33:13;102160.81;;;0.86;100.00
43125;BME280;49182;50.788;7.318;2023-11-22T08:38:15;102157.06;;;0.98;100.00
43125;BME280;49182;50.788;7.318;2023-11-22T08:43:18;102137.84;;;1.05;100.00
43125;BME280;49182;50.788;7.318;2023-11-22T08:48:20;102164.13;;;1.30;100.00
43125;BME280;49182;50.788;7.318;2023-11-22T08:53:22;102172.31;;;1.48;100.00
43125;BME280;49182;50.788;7.318;2023-11-22T08:58:25;102195.22;;;1.68;100.00
43125;BME280;49182;50.788;7.318;2023-11-22T09:03:27;102218.44;;;1.77;100.00
43125;BME280;49182;50.788;7.318;2023-11-22T09:08:28;102230.16;;;1.93;100.00
43125;BME280;49182;50.788;7.318;2023-11-22T09:13:33;102267.09;;;2.09;100.00
43125;BME280;49182;50.788;7.318;2023-11-22T09:18:36;102226.34;;;2.07;100.00
43125;BME280;49182;50.788;7.318;2023-11-22T09:23:37;102212.19;;;2.17;100.00
43125;BME280;49182;50.788;7.318;2023-11-22T09:28:41;102258.13;;;2.52;99.32
43125;BME280;49182;50.788;7.318;2023-11-22T09:33:42;102256.03;;;2.64;94.26
43125;BME280;49182;50.788;7.318;2023-11-22T09:38:44;102242.72;;;3.03;88.65
43125;BME280;49182;50.788;7.318;2023-11-22T09:43:47;102245.31;;;3.32;85.73
43125;BME280;49182;50.788;7.318;2023-11-22T09:48:49;102237.78;;;3.49;78.79
43125;BME280;49182;50.788;7.318;2023-11-22T09:53:55;102259.94;;;3.90;77.44
43125;BME280;49182;50.788;7.318;2023-11-22T09:59:00;102245.56;;;4.03;78.59
43125;BME280;49182;50.788;7.318;2023-11-22T10:04:03;102187.19;;;4.03;72.19
43125;BME280;49182;50.788;7.318;2023-11-22T10:09:05;102226.53;;;4.48;68.98
43125;BME280;49182;50.788;7.318;2023-11-22T10:14:08;102248.59;;;4.64;66.91
43125;BME280;49182;50.788;7.318;2023-11-22T10:19:10;102245.31;;;4.82;68.07
43125;BME280;49182;50.788;7.318;2023-11-22T10:24:12;102249.84;;;5.01;69.30
43125;BME280;49182;50.788;7.318;2023-11-22T10:29:15;102228.28;;;5.17;66.11
43125;BME280;49182;50.788;7.318;2023-11-22T10:34:18;102224.94;;;5.36;60.63
43125;BME280;49182;50.788;7.318;2023-11-22T10:39:20;102228.75;;;5.49;63.01
43125;BME280;49182;50.788;7.318;2023-11-22T10:44:23;102223.63;;;5.67;61.94
43125;BME280;49182;50.788;7.318;2023-11-22T10:49:25;102235.78;;;5.90;59.89
43125;BME280;49182;50.788;7.318;2023-11-22T10:54:27;102122.78;;;5.36;59.92
43125;BME280;49182;50.788;7.318;2023-11-22T10:59:32;102230.09;;;6.21;60.33
43125;BME280;49182;50.788;7.318;2023-11-22T11:04:39;102247.44;;;6.44;60.79
43125;BME280;49182;50.788;7.318;2023-11-22T11:09:45;102232.16;;;6.54;58.55
43125;BME280;49182;50.788;7.318;2023-11-22T11:14:49;102246.84;;;6.76;58.68
43125;BME280;49182;50.788;7.318;2023-11-22T11:19:51;102242.97;;;6.85;60.77
43125;BME280;49182;50.788;7.318;2023-11-22T11:25:00;102243.88;;;7.03;58.83
43125;BME280;49182;50.788;7.318;2023-11-22T11:30:46;102253.25;;;7.08;56.81
43125;BME280;49182;50.788;7.318;2023-11-22T11:35:49;102257.88;;;7.03;51.86
43125;BME280;49182;50.788;7.318;2023-11-22T11:40:52;102244.66;;;6.86;52.53
43125;BME280;49182;50.788;7.318;2023-11-22T11:45:55;102227.13;;;6.86;53.79
43125;BME280;49182;50.788;7.318;2023-11-22T11:50:56;102226.72;;;6.96;51.58
43125;BME280;49182;50.788;7.318;2023-11-22T11:55:58;102221.88;;;7.05;54.85
43125;BME280;49182;50.788;7.318;2023-11-22T12:01:02;102211.03;;;7.30;54.09
43125;BME280;49182;50.788;7.318;2023-11-22T12:06:04;102208.53;;;7.46;55.24
43125;BME280;49182;50.788;7.318;2023-11-22T12:11:06;102220.97;;;7.59;55.57
43125;BME280;49182;50.788;7.318;2023-11-22T12:16:09;102221.53;;;7.66;52.52
43125;BME280;49182;50.788;7.318;2023-11-22T12:21:11;102181.25;;;7.48;51.87
43125;BME280;49182;50.788;7.318;2023-11-22T12:26:14;102118.34;;;7.28;50.95
43125;BME280;49182;50.788;7.318;2023-11-22T12:31:17;102179.09;;;7.73;50.87
43125;BME280;49182;50.788;7.318;2023-11-22T12:36:19;102174.69;;;7.57;49.87
43125;BME280;49182;50.788;7.318;2023-11-22T12:41:20;102149.41;;;7.37;51.46
43125;BME280;49182;50.788;7.318;2023-11-22T12:46:24;102108.59;;;7.47;52.54
43125;BME280;49182;50.788;7.318;2023-11-22T12:51:26;102082.31;;;7.64;50.66
43125;BME280;49182;50.788;7.318;2023-11-22T12:56:27;102104.41;;;7.78;49.56
43125;BME280;49182;50.788;7.318;2023-11-22T13:01:30;102097.03;;;7.84;49.95
43125;BME280;49182;50.788;7.318;2023-11-22T13:06:32;102095.63;;;7.94;48.13
43125;BME280;49182;50.788;7.318;2023-11-22T13:11:34;102090.72;;;8.04;48.46
43125;BME280;49182;50.788;7.318;2023-11-22T13:16:37;102110.38;;;8.14;50.58
43125;BME280;49182;50.788;7.318;2023-11-22T13:21:39;102098.41;;;8.24;47.70
43125;BME280;49182;50.788;7.318;2023-11-22T13:26:40;102094.13;;;8.22;48.01
43125;BME280;49182;50.788;7.318;2023-11-22T13:31:43;102086.19;;;8.23;48.73
43125;BME280;49182;50.788;7.318;2023-11-22T13:36:45;102058.94;;;8.24;49.36
43125;BME280;49182;50.788;7.318;2023-11-22T13:41:47;102070.91;;;8.14;50.59
43125;BME280;49182;50.788;7.318;2023-11-22T13:46:50;102080.66;;;8.12;48.70
43125;BME280;49182;50.788;7.318;2023-11-22T13:51:52;102084.28;;;8.09;48.14
43125;BME280;49182;50.788;7.318;2023-11-22T13:56:53;102103.53;;;7.94;50.56
43125;BME280;49182;50.788;7.318;2023-11-22T14:01:57;102034.69;;;7.70;50.63
43125;BME280;49182;50.788;7.318;2023-11-22T14:06:58;102102.28;;;8.17;52.69
43125;BME280;49182;50.788;7.318;2023-11-22T14:12:00;102119.75;;;8.35;51.62
43125;BME280;49182;50.788;7.318;2023-11-22T14:17:03;102122.97;;;8.40;51.56
43125;BME280;49182;50.788;7.318;2023-11-22T14:22:05;102127.09;;;8.29;51.99
43125;BME280;49182;50.788;7.318;2023-11-22T14:27:07;102119.22;;;7.96;55.81
43125;BME280;49182;50.788;7.318;2023-11-22T14:32:10;102124.81;;;7.72;55.16
43125;BME280;49182;50.788;7.318;2023-11-22T14:37:11;102095.69;;;7.25;57.86
43125;BME280;49182;50.788;7.318;2023-11-22T14:42:13;102125.06;;;7.34;56.92
43125;BME280;49182;50.788;7.318;2023-11-22T14:47:17;102128.72;;;7.12;57.00
43125;BME280;49182;50.788;7.318;2023-11-22T14:52:19;102129.00;;;6.89;56.56
43125;BME280;49182;50.788;7.318;2023-11-22T14:57:21;102141.22;;;6.71;56.94
43125;BME280;49182;50.788;7.318;2023-11-22T15:02:24;102153.63;;;6.49;59.01
43125;BME280;49182;50.788;7.318;2023-11-22T15:07:25;102156.97;;;6.34;59.91
43125;BME280;49182;50.788;7.318;2023-11-22T15:12:27;102131.66;;;5.94;60.90
43125;BME280;49182;50.788;7.318;2023-11-22T15:17:30;102163.97;;;5.94;63.56
43125;BME280;49182;50.788;7.318;2023-11-22T15:22:32;102167.22;;;5.79;64.77
43125;BME280;49182;50.788;7.318;2023-11-22T15:27:33;102167.06;;;5.62;65.87
43125;BME280;49182;50.788;7.318;2023-11-22T15:32:38;102162.22;;;5.53;66.75
43125;BME280;49182;50.788;7.318;2023-11-22T15:37:39;102155.47;;;5.47;66.91
43125;BME280;49182;50.788;7.318;2023-11-22T15:42:41;102126.88;;;5.21;68.51
43125;BME280;49182;50.788;7.318;2023-11-22T15:47:44;102145.69;;;5.31;71.04
43125;BME280;49182;50.788;7.318;2023-11-22T15:52:45;102163.69;;;5.18;72.47
43125;BME280;49182;50.788;7.318;2023-11-22T15:57:47;102165.75;;;5.10;72.20
43125;BME280;49182;50.788;7.318;2023-11-22T16:02:50;102175.41;;;5.08;72.07
43125;BME280;49182;50.788;7.318;2023-11-22T16:07:52;102185.41;;;4.98;74.07
43125;BME280;49182;50.788;7.318;2023-11-22T16:12:54;102195.31;;;4.90;75.08
43125;BME280;49182;50.788;7.318;2023-11-22T16:17:57;102164.50;;;4.75;74.76
43125;BME280;49182;50.788;7.318;2023-11-22T16:22:59;102182.59;;;4.81;74.84
43125;BME280;49182;50.788;7.318;2023-11-22T16:28:00;102161.28;;;4.68;75.61
43125;BME280;49182;50.788;7.318;2023-11-22T16:33:03;102150.09;;;4.63;77.21
43125;BME280;49182;50.788;7.318;2023-11-22T16:38:05;102138.97;;;4.58;76.94
43125;BME280;49182;50.788;7.318;2023-11-22T16:43:07;102140.69;;;4.59;77.36
43125;BME280;49182;50.788;7.318;2023-11-22T16:48:10;102147.63;;;4.60;77.34
43125;BME280;49182;50.788;7.318;2023-11-22T16:53:11;102148.47;;;4.61;77.15
43125;BME280;49182;50.788;7.318;2023-11-22T16:58:13;102147.72;;;4.57;77.21
43125;BME280;49182;50.788;7.318;2023-11-22T17:03:16;102150.03;;;4.43;78.61
43125;BME280;49182;50.788;7.318;2023-11-22T17:08:24;102132.81;;;4.37;78.44
43125;BME280;49182;50.788;7.318;2023-11-22T17:13:26;102131.34;;;4.30;78.61
43125;BME280;49182;50.788;7.318;2023-11-22T17:18:30;102155.81;;;4.28;78.81
43125;BME280;49182;50.788;7.318;2023-11-22T17:23:32;102181.09;;;4.27;79.95
43125;BME280;49182;50.788;7.318;2023-11-22T17:28:33;102160.03;;;4.32;79.56
43125;BME280;49182;50.788;7.318;2023-11-22T17:33:37;102149.72;;;4.27;82.61
43125;BME280;49182;50.788;7.318;2023-11-22T17:38:39;102134.31;;;4.20;82.02
43125;BME280;49182;50.788;7.318;2023-11-22T17:43:41;102128.19;;;4.21;82.39
43125;BME280;49182;50.788;7.318;2023-11-22T17:48:44;102133.41;;;4.21;82.40
43125;BME280;49182;50.788;7.318;2023-11-22T17:53:45;102129.84;;;4.23;82.36
43125;BME280;49182;50.788;7.318;2023-11-22T17:58:47;102109.78;;;4.24;82.30
43125;BME280;49182;50.788;7.318;2023-11-22T18:03:50;102105.50;;;4.21;82.36
43125;BME280;49182;50.788;7.318;2023-11-22T18:08:52;102076.81;;;4.20;82.74
43125;BME280;49182;50.788;7.318;2023-11-22T18:13:54;102058.59;;;4.18;82.22
43125;BME280;49182;50.788;7.318;2023-11-22T18:18:57;102060.34;;;4.18;82.99
43125;BME280;49182;50.788;7.318;2023-11-22T18:23:59;102069.91;;;4.19;83.28
43125;BME280;49182;50.788;7.318;2023-11-22T18:29:01;102075.91;;;4.21;82.45
43125;BME280;49182;50.788;7.318;2023-11-22T18:34:04;102085.28;;;4.26;83.50
43125;BME280;49182;50.788;7.318;2023-11-22T18:39:06;102080.19;;;4.23;84.56
43125;BME280;49182;50.788;7.318;2023-11-22T18:55:12;101946.53;;;3.41;84.47
43125;BME280;49182;50.788;7.318;2023-11-22T19:00:14;102097.72;;;4.20;84.33
43125;BME280;49182;50.788;7.318;2023-11-22T19:05:17;102066.31;;;3.98;83.86
43125;BME280;49182;50.788;7.318;2023-11-22T19:10:21;102108.72;;;4.29;84.36
43125;BME280;49182;50.788;7.318;2023-11-22T19:15:22;102099.91;;;4.32;85.01
43125;BME280;49182;50.788;7.318;2023-11-22T19:20:24;102095.19;;;4.18;86.14
43125;BME280;49182;50.788;7.318;2023-11-22T19:25:27;102096.91;;;4.19;85.56
43125;BME280;49182;50.788;7.318;2023-11-22T19:30:31;102073.66;;;4.12;85.95
43125;BME280;49182;50.788;7.318;2023-11-22T19:35:33;102070.41;;;4.05;86.64
43125;BME280;49182;50.788;7.318;2023-11-22T19:40:36;102074.28;;;3.95;87.30
43125;BME280;49182;50.788;7.318;2023-11-22T19:45:39;102066.53;;;3.92;87.63
43125;BME280;49182;50.788;7.318;2023-11-22T19:50:41;102062.81;;;3.76;88.45
43125;BME280;49182;50.788;7.318;2023-11-22T19:55:44;102070.28;;;3.85;88.29
43125;BME280;49182;50.788;7.318;2023-11-22T20:00:48;102056.50;;;3.81;87.39
43125;BME280;49182;50.788;7.318;2023-11-22T20:05:49;102036.41;;;3.58;88.27
43125;BME280;49182;50.788;7.318;2023-11-22T20:11:04;102062.53;;;3.58;87.95
43125;BME280;49182;50.788;7.318;2023-11-22T20:16:05;102050.75;;;3.47;88.50
43125;BME280;49182;50.788;7.318;2023-11-22T20:21:09;102069.03;;;3.47;90.27
43125;BME280;49182;50.788;7.318;2023-11-22T20:43:04;102038.72;;;3.18;91.98
43125;BME280;49182;50.788;7.318;2023-11-22T20:48:15;101848.59;;;1.82;92.37
43125;BME280;49182;50.788;7.318;2023-11-22T20:53:17;101809.94;;;1.70;92.28
43125;BME280;49182;50.788;7.318;2023-11-22T20:58:20;102037.47;;;3.03;93.46
43125;BME280;49182;50.788;7.318;2023-11-22T21:03:22;102053.19;;;3.02;94.00
43125;BME280;49182;50.788;7.318;2023-11-22T21:08:24;102045.28;;;3.03;93.79
43125;BME280;49182;50.788;7.318;2023-11-22T21:13:27;102051.31;;;3.05;93.32
43125;BME280;49182;50.788;7.318;2023-11-22T21:18:29;102066.97;;;3.05;93.63
43125;BME280;49182;50.788;7.318;2023-11-22T21:23:31;102063.44;;;3.08;94.25
43125;BME280;49182;50.788;7.318;2023-11-22T21:28:34;102072.16;;;3.07;94.38
43125;BME280;49182;50.788;7.318;2023-11-22T21:33:36;102056.50;;;3.07;94.40
43125;BME280;49182;50.788;7.318;2023-11-22T21:38:38;102056.50;;;3.07;94.91
43125;BME280;49182;50.788;7.318;2023-11-22T21:43:41;101906.94;;;2.30;94.95
43125;BME280;49182;50.788;7.318;2023-11-22T21:48:43;102039.81;;;3.11;94.74
43125;BME280;49182;50.788;7.318;2023-11-22T21:53:45;102038.75;;;3.16;93.48
43125;BME280;49182;50.788;7.318;2023-11-22T21:58:48;102048.34;;;3.16;93.31
43125;BME280;49182;50.788;7.318;2023-11-22T22:03:50;102049.13;;;3.19;93.46
43125;BME280;49182;50.788;7.318;2023-11-22T22:08:51;102030.59;;;3.27;92.34
43125;BME280;49182;50.788;7.318;2023-11-22T22:13:55;102037.41;;;3.31;91.66
43125;BME280;49182;50.788;7.318;2023-11-22T22:18:56;102043.44;;;3.33;91.73
43125;BME280;49182;50.788;7.318;2023-11-22T22:23:58;102036.28;;;3.38;91.61
43125;BME280;49182;50.788;7.318;2023-11-22T22:29:02;102037.88;;;3.42;91.67
43125;BME280;49182;50.788;7.318;2023-11-22T22:34:04;102029.00;;;3.46;91.83
43125;BME280;49182;50.788;7.318;2023-11-22T22:39:05;102025.41;;;3.50;92.35
43125;BME280;49182;50.788;7.318;2023-11-22T22:44:08;102007.81;;;3.55;92.41
43125;BME280;49182;50.788;7.318;2023-11-22T22:49:12;101992.16;;;3.55;92.10
43125;BME280;49182;50.788;7.318;2023-11-22T22:54:13;101981.03;;;3.50;92.17
43125;BME280;49182;50.788;7.318;2023-11-22T22:59:16;101950.16;;;3.38;92.81
43125;BME280;49182;50.788;7.318;2023-11-22T23:04:18;101968.69;;;3.54;91.98
43125;BME280;49182;50.788;7.318;2023-11-22T23:09:20;101961.66;;;3.56;92.52
43125;BME280;49182;50.788;7.318;2023-11-22T23:14:23;101942.13;;;3.43;92.71
43125;BME280;49182;50.788;7.318;2023-11-22T23:19:25;101943.31;;;3.34;92.55
43125;BME280;49182;50.788;7.318;2023-11-22T23:24:27;101936.50;;;3.30;93.12
43125;BME280;49182;50.788;7.318;2023-11-22T23:29:30;101943.75;;;3.22;93.43
43125;BME280;49182;50.788;7.318;2023-11-22T23:34:31;101882.50;;;2.84;93.45
43125;BME280;49182;50.788;7.318;2023-11-22T23:39:33;101929.06;;;3.19;93.69
43125;BME280;49182;50.788;7.318;2023-11-22T23:44:36;101903.25;;;3.12;93.92
43125;BME280;49182;50.788;7.318;2023-11-22T23:49:38;101909.56;;;3.30;94.31
43125;BME280;49182;50.788;7.318;2023-11-22T23:54:39;101911.84;;;3.39;94.57
43125;BME280;49182;50.788;7.318;2023-11-22T23:59:42;101831.13;;;3.09;94.84
